sensor_id;sensor_type;location;lat;lon;timestamp;pressure;altitude;pressure_sealevel;temperature;humidity
43621;BME280;29213;50.770;7.298;2023-04-10T00:01:17;101574.44;;;4.00;54.94
43621;BME280;29213;50.770;7.298;2023-04-10T00:03:43;101572.75;;;3.99;55.21
43621;BME280;29213;50.770;7.298;2023-04-10T00:06:08;101516.88;;;3.65;55.04
43621;BME280;29213;50.770;7.298;2023-04-10T00:08:34;101463.38;;;3.35;55.08
43621;BME280;29213;50.770;7.298;2023-04-10T00:10:59;101530.22;;;3.76;54.98
43621;BME280;29213;50.770;7.298;2023-04-10T00:13:25;101441.09;;;3.12;55.72
43621;BME280;29213;50.770;7.298;2023-04-10T00:15:50;101552.53;;;3.85;55.29
43621;BME280;29213;50.770;7.298;2023-04-10T00:18:16;101556.19;;;3.82;55.23
43621;BME280;29213;50.770;7.298;2023-04-10T00:20:41;101556.59;;;3.76;55.51
43621;BME280;29213;50.770;7.298;2023-04-10T00:23:08;101526.78;;;3.61;55.98
43621;BME280;29213;50.770;7.298;2023-04-10T00:25:33;101439.97;;;3.01;55.82
43621;BME280;29213;50.770;7.298;2023-04-10T00:27:59;101551.69;;;3.70;55.70
43621;BME280;29213;50.770;7.298;2023-04-10T00:30:24;101467.78;;;3.20;55.83
43621;BME280;29213;50.770;7.298;2023-04-10T00:32:49;101554.50;;;3.67;55.80
43621;BME280;29213;50.770;7.298;2023-04-10T00:35:15;101522.91;;;3.52;55.65
43621;BME280;29213;50.770;7.298;2023-04-10T00:37:40;101544.09;;;3.65;55.66
43621;BME280;29213;50.770;7.298;2023-04-10T00:40:07;101519.63;;;3.48;55.60
43621;BME280;29213;50.770;7.298;2023-04-10T00:42:32;101435.66;;;3.00;55.90
43621;BME280;29213;50.770;7.298;2023-04-10T00:44:58;101527.97;;;3.55;55.89
43621;BME280;29213;50.770;7.298;2023-04-10T00:47:25;101473.34;;;3.15;56.03
43621;BME280;29213;50.770;7.298;2023-04-10T00:49:51;101486.78;;;3.25;56.53
43621;BME280;29213;50.770;7.298;2023-04-10T00:52:17;101384.59;;;2.59;56.22
43621;BME280;29213;50.770;7.298;2023-04-10T00:54:43;101412.19;;;2.66;55.98
43621;BME280;29213;50.770;7.298;2023-04-10T00:57:08;101455.66;;;2.88;55.82
43621;BME280;29213;50.770;7.298;2023-04-10T00:59:34;101450.88;;;2.95;56.46
43621;BME280;29213;50.770;7.298;2023-04-10T01:02:00;101523.69;;;3.40;56.11
43621;BME280;29213;50.770;7.298;2023-04-10T01:04:27;101493.94;;;3.23;56.32
43621;BME280;29213;50.770;7.298;2023-04-10T01:06:57;101519.25;;;3.40;56.80
43621;BME280;29213;50.770;7.298;2023-04-10T01:09:43;101419.25;;;2.80;56.60
43621;BME280;29213;50.770;7.298;2023-04-10T01:17:20;101446.44;;;2.95;56.79
43621;BME280;29213;50.770;7.298;2023-04-10T01:20:06;101528.94;;;3.40;56.70
43621;BME280;29213;50.770;7.298;2023-04-10T01:22:40;101447.47;;;2.93;56.75
43621;BME280;29213;50.770;7.298;2023-04-10T01:25:48;101517.72;;;3.36;56.54
43621;BME280;29213;50.770;7.298;2023-04-10T01:29:08;101512.66;;;3.33;56.57
43621;BME280;29213;50.770;7.298;2023-04-10T01:31:13;101490.84;;;3.16;56.85
43621;BME280;29213;50.770;7.298;2023-04-10T01:33:44;101491.88;;;3.14;56.87
43621;BME280;29213;50.770;7.298;2023-04-10T01:36:12;101433.38;;;2.79;56.83
43621;BME280;29213;50.770;7.298;2023-04-10T01:38:43;101514.91;;;3.25;56.86
43621;BME280;29213;50.770;7.298;2023-04-10T01:41:08;101446.53;;;2.79;56.69
43621;BME280;29213;50.770;7.298;2023-04-10T01:43:34;101489.59;;;3.07;56.82
43621;BME280;29213;50.770;7.298;2023-04-10T01:46:02;101507.84;;;3.25;56.84
43621;BME280;29213;50.770;7.298;2023-04-10T01:48:28;101492.91;;;3.26;57.27
43621;BME280;29213;50.770;7.298;2023-04-10T01:50:54;101439.56;;;2.93;57.24
43621;BME280;29213;50.770;7.298;2023-04-10T01:53:22;101456.50;;;3.03;57.24
43621;BME280;29213;50.770;7.298;2023-04-10T01:55:49;101360.88;;;2.45;57.54
43621;BME280;29213;50.770;7.298;2023-04-10T01:58:14;101370.38;;;2.47;57.85
43621;BME280;29213;50.770;7.298;2023-04-10T02:00:41;101412.41;;;2.78;57.41
43621;BME280;29213;50.770;7.298;2023-04-10T02:03:07;101352.16;;;2.44;57.06
43621;BME280;29213;50.770;7.298;2023-04-10T02:05:45;101358.44;;;2.41;57.20
43621;BME280;29213;50.770;7.298;2023-04-10T02:08:26;101391.44;;;2.62;57.78
43621;BME280;29213;50.770;7.298;2023-04-10T02:11:01;101325.44;;;2.21;56.95
43621;BME280;29213;50.770;7.298;2023-04-10T02:13:29;101355.13;;;2.38;57.60
43621;BME280;29213;50.770;7.298;2023-04-10T02:15:58;101379.78;;;2.51;57.34
43621;BME280;29213;50.770;7.298;2023-04-10T02:18:25;101447.00;;;3.01;57.99
43621;BME280;29213;50.770;7.298;2023-04-10T02:20:53;101216.31;;;1.54;57.49
43621;BME280;29213;50.770;7.298;2023-04-10T02:23:19;101294.28;;;1.99;57.16
43621;BME280;29213;50.770;7.298;2023-04-10T02:25:45;101344.03;;;2.33;57.22
43621;BME280;29213;50.770;7.298;2023-04-10T02:28:10;101371.81;;;2.53;57.91
43621;BME280;29213;50.770;7.298;2023-04-10T02:30:36;101415.69;;;2.81;57.46
43621;BME280;29213;50.770;7.298;2023-04-10T02:33:03;101342.19;;;2.35;57.46
43621;BME280;29213;50.770;7.298;2023-04-10T02:35:28;101371.50;;;2.58;57.56
43621;BME280;29213;50.770;7.298;2023-04-10T02:37:54;101365.59;;;2.54;57.79
43621;BME280;29213;50.770;7.298;2023-04-10T02:40:20;101337.41;;;2.41;57.66
43621;BME280;29213;50.770;7.298;2023-04-10T02:42:45;101399.81;;;2.83;57.63
43621;BME280;29213;50.770;7.298;2023-04-10T02:45:11;101320.66;;;2.28;57.82
43621;BME280;29213;50.770;7.298;2023-04-10T02:47:37;101427.94;;;2.97;58.01
43621;BME280;29213;50.770;7.298;2023-04-10T02:50:02;101332.50;;;2.35;57.92
43621;BME280;29213;50.770;7.298;2023-04-10T02:52:28;101425.78;;;3.04;57.49
43621;BME280;29213;50.770;7.298;2023-04-10T02:54:53;101427.63;;;3.02;57.57
43621;BME280;29213;50.770;7.298;2023-04-10T02:57:18;101350.94;;;2.50;57.86
43621;BME280;29213;50.770;7.298;2023-04-10T02:59:44;101376.88;;;2.71;57.65
43621;BME280;29213;50.770;7.298;2023-04-10T03:02:09;101331.38;;;2.39;56.91
43621;BME280;29213;50.770;7.298;2023-04-10T03:04:35;101221.25;;;1.75;57.02
43621;BME280;29213;50.770;7.298;2023-04-10T03:07:01;101270.56;;;2.00;56.96
43621;BME280;29213;50.770;7.298;2023-04-10T03:09:27;101335.53;;;2.44;57.64
43621;BME280;29213;50.770;7.298;2023-04-10T03:11:52;101357.72;;;2.54;57.48
43621;BME280;29213;50.770;7.298;2023-04-10T03:14:17;101309.50;;;2.24;57.51
43621;BME280;29213;50.770;7.298;2023-04-10T03:16:43;101429.53;;;3.00;57.16
43621;BME280;29213;50.770;7.298;2023-04-10T03:19:09;101303.38;;;2.24;57.26
43621;BME280;29213;50.770;7.298;2023-04-10T03:21:36;101375.19;;;2.70;57.13
43621;BME280;29213;50.770;7.298;2023-04-10T03:24:02;101290.50;;;2.19;57.06
43621;BME280;29213;50.770;7.298;2023-04-10T03:26:27;101393.91;;;2.79;57.05
43621;BME280;29213;50.770;7.298;2023-04-10T03:28:52;101393.97;;;2.78;57.65
43621;BME280;29213;50.770;7.298;2023-04-10T03:31:18;101220.41;;;1.74;57.63
43621;BME280;29213;50.770;7.298;2023-04-10T03:33:44;101363.78;;;2.54;57.15
43621;BME280;29213;50.770;7.298;2023-04-10T03:36:10;101410.25;;;2.85;57.79
43621;BME280;29213;50.770;7.298;2023-04-10T03:38:35;101378.66;;;2.70;57.53
43621;BME280;29213;50.770;7.298;2023-04-10T03:41:01;101275.72;;;2.02;57.99
43621;BME280;29213;50.770;7.298;2023-04-10T03:43:28;101353.56;;;2.50;57.92
43621;BME280;29213;50.770;7.298;2023-04-10T03:45:54;101134.06;;;1.08;57.57
43621;BME280;29213;50.770;7.298;2023-04-10T03:48:19;101319.84;;;2.27;57.86
43621;BME280;29213;50.770;7.298;2023-04-10T03:50:45;101188.81;;;1.45;57.52
43621;BME280;29213;50.770;7.298;2023-04-10T03:53:10;101273.63;;;1.93;57.66
43621;BME280;29213;50.770;7.298;2023-04-10T03:55:35;101350.28;;;2.46;57.79
43621;BME280;29213;50.770;7.298;2023-04-10T03:58:03;101386.84;;;2.65;57.47
43621;BME280;29213;50.770;7.298;2023-04-10T04:00:28;101167.94;;;1.28;57.99
43621;BME280;29213;50.770;7.298;2023-04-10T04:02:54;101320.00;;;2.24;58.38
43621;BME280;29213;50.770;7.298;2023-04-10T04:05:19;101309.94;;;2.17;58.27
43621;BME280;29213;50.770;7.298;2023-04-10T04:07:45;101321.59;;;2.27;57.98
43621;BME280;29213;50.770;7.298;2023-04-10T04:10:10;101256.44;;;1.87;57.88
43621;BME280;29213;50.770;7.298;2023-04-10T04:12:36;101285.34;;;2.03;58.10
43621;BME280;29213;50.770;7.298;2023-04-10T04:15:01;101272.69;;;1.94;58.06
43621;BME280;29213;50.770;7.298;2023-04-10T04:17:27;101277.94;;;1.94;58.28
43621;BME280;29213;50.770;7.298;2023-04-10T04:19:52;101367.75;;;2.47;57.92
43621;BME280;29213;50.770;7.298;2023-04-10T04:22:19;101309.66;;;2.07;58.24
43621;BME280;29213;50.770;7.298;2023-04-10T04:24:44;101341.03;;;2.24;57.86
43621;BME280;29213;50.770;7.298;2023-04-10T04:27:10;101320.66;;;2.13;57.75
43621;BME280;29213;50.770;7.298;2023-04-10T04:29:35;101363.38;;;2.32;57.76
43621;BME280;29213;50.770;7.298;2023-04-10T04:32:01;101282.03;;;1.83;58.25
43621;BME280;29213;50.770;7.298;2023-04-10T04:34:26;101140.09;;;0.94;57.58
43621;BME280;29213;50.770;7.298;2023-04-10T04:36:52;101332.75;;;2.16;57.74
43621;BME280;29213;50.770;7.298;2023-04-10T04:39:17;101310.75;;;2.03;57.85
43621;BME280;29213;50.770;7.298;2023-04-10T04:41:42;101275.84;;;1.84;57.58
43621;BME280;29213;50.770;7.298;2023-04-10T04:44:08;101363.22;;;2.35;57.71
43621;BME280;29213;50.770;7.298;2023-04-10T04:46:34;101321.69;;;2.11;58.59
43621;BME280;29213;50.770;7.298;2023-04-10T04:48:59;101368.56;;;2.33;57.63
43621;BME280;29213;50.770;7.298;2023-04-10T04:51:24;101344.47;;;2.10;57.65
43621;BME280;29213;50.770;7.298;2023-04-10T04:53:50;101284.38;;;1.73;58.38
43621;BME280;29213;50.770;7.298;2023-04-10T04:56:15;101389.50;;;2.35;58.03
43621;BME280;29213;50.770;7.298;2023-04-10T04:58:41;101344.47;;;2.10;57.97
43621;BME280;29213;50.770;7.298;2023-04-10T05:01:06;101210.97;;;1.25;58.05
43621;BME280;29213;50.770;7.298;2023-04-10T05:03:32;101336.94;;;2.04;58.03
43621;BME280;29213;50.770;7.298;2023-04-10T05:05:57;101311.81;;;1.84;57.80
43621;BME280;29213;50.770;7.298;2023-04-10T05:08:23;101231.84;;;1.43;57.60
43621;BME280;29213;50.770;7.298;2023-04-10T05:10:48;101313.31;;;1.88;57.72
43621;BME280;29213;50.770;7.298;2023-04-10T05:13:14;101260.59;;;1.60;57.63
43621;BME280;29213;50.770;7.298;2023-04-10T05:15:42;101383.13;;;2.39;57.36
43621;BME280;29213;50.770;7.298;2023-04-10T05:18:07;101275.91;;;1.68;58.23
43621;BME280;29213;50.770;7.298;2023-04-10T05:20:34;101389.31;;;2.38;58.33
43621;BME280;29213;50.770;7.298;2023-04-10T05:23:00;101355.28;;;2.20;58.20
43621;BME280;29213;50.770;7.298;2023-04-10T05:25:25;101386.88;;;2.35;57.91
43621;BME280;29213;50.770;7.298;2023-04-10T05:27:51;101382.72;;;2.31;58.47
43621;BME280;29213;50.770;7.298;2023-04-10T05:30:16;101297.22;;;1.78;58.31
43621;BME280;29213;50.770;7.298;2023-04-10T05:32:41;101246.84;;;1.41;58.80
43621;BME280;29213;50.770;7.298;2023-04-10T05:35:07;101293.94;;;1.74;58.53
43621;BME280;29213;50.770;7.298;2023-04-10T05:37:33;101302.31;;;1.81;58.63
43621;BME280;29213;50.770;7.298;2023-04-10T05:39:58;101200.91;;;1.17;58.25
43621;BME280;29213;50.770;7.298;2023-04-10T05:42:24;101206.88;;;1.19;58.71
43621;BME280;29213;50.770;7.298;2023-04-10T05:44:51;101289.63;;;1.73;58.18
43621;BME280;29213;50.770;7.298;2023-04-10T05:47:16;101342.69;;;2.11;58.45
43621;BME280;29213;50.770;7.298;2023-04-10T05:49:41;101367.97;;;2.28;58.47
43621;BME280;29213;50.770;7.298;2023-04-10T05:52:07;101379.47;;;2.41;59.10
43621;BME280;29213;50.770;7.298;2023-04-10T05:54:32;101197.22;;;1.36;58.31
43621;BME280;29213;50.770;7.298;2023-04-10T05:56:58;101393.22;;;2.61;58.82
43621;BME280;29213;50.770;7.298;2023-04-10T05:59:23;101277.66;;;1.84;59.17
43621;BME280;29213;50.770;7.298;2023-04-10T06:01:48;101312.19;;;2.23;58.99
43621;BME280;29213;50.770;7.298;2023-04-10T06:04:14;101351.50;;;2.55;64.44
43621;BME280;29213;50.770;7.298;2023-04-10T06:06:40;101329.56;;;3.27;68.28
43621;BME280;29213;50.770;7.298;2023-04-10T06:09:05;101320.44;;;4.54;65.08
43621;BME280;29213;50.770;7.298;2023-04-10T06:11:31;101375.06;;;5.42;61.49
43621;BME280;29213;50.770;7.298;2023-04-10T06:13:56;101380.16;;;5.45;55.42
43621;BME280;29213;50.770;7.298;2023-04-10T06:16:22;101300.69;;;4.60;55.95
43621;BME280;29213;50.770;7.298;2023-04-10T06:18:47;101316.50;;;4.60;56.23
43621;BME280;29213;50.770;7.298;2023-04-10T06:21:15;101327.06;;;4.60;55.90
43621;BME280;29213;50.770;7.298;2023-04-10T06:23:40;101378.25;;;4.97;56.03
43621;BME280;29213;50.770;7.298;2023-04-10T06:26:06;101290.84;;;4.36;55.81
43621;BME280;29213;50.770;7.298;2023-04-10T06:28:31;101352.50;;;4.74;56.21
43621;BME280;29213;50.770;7.298;2023-04-10T06:30:57;101336.22;;;4.67;55.98
43621;BME280;29213;50.770;7.298;2023-04-10T06:33:22;101311.09;;;4.49;55.73
43621;BME280;29213;50.770;7.298;2023-04-10T06:35:47;101344.56;;;4.74;55.76
43621;BME280;29213;50.770;7.298;2023-04-10T06:38:13;101364.81;;;5.00;56.04
43621;BME280;29213;50.770;7.298;2023-04-10T06:40:39;101268.16;;;4.47;55.85
43621;BME280;29213;50.770;7.298;2023-04-10T06:43:05;101298.75;;;4.75;56.00
43621;BME280;29213;50.770;7.298;2023-04-10T06:45:30;101369.19;;;5.25;55.61
43621;BME280;29213;50.770;7.298;2023-04-10T06:47:56;101279.13;;;4.66;55.64
43621;BME280;29213;50.770;7.298;2023-04-10T06:50:21;101241.25;;;4.41;55.74
43621;BME280;29213;50.770;7.298;2023-04-10T06:52:47;101234.59;;;4.49;55.66
43621;BME280;29213;50.770;7.298;2023-04-10T06:55:12;101365.13;;;5.45;55.76
43621;BME280;29213;50.770;7.298;2023-04-10T06:57:38;101304.94;;;5.13;55.85
43621;BME280;29213;50.770;7.298;2023-04-10T07:00:05;101368.41;;;5.73;55.67
43621;BME280;29213;50.770;7.298;2023-04-10T07:02:30;101348.97;;;5.74;54.79
43621;BME280;29213;50.770;7.298;2023-04-10T07:04:56;101280.47;;;5.47;53.86
43621;BME280;29213;50.770;7.298;2023-04-10T07:07:21;101269.09;;;5.46;53.07
43621;BME280;29213;50.770;7.298;2023-04-10T07:09:47;101272.28;;;5.63;53.13
43621;BME280;29213;50.770;7.298;2023-04-10T07:12:12;101371.75;;;6.36;52.43
43621;BME280;29213;50.770;7.298;2023-04-10T07:14:38;101307.97;;;6.05;52.16
43621;BME280;29213;50.770;7.298;2023-04-10T07:17:03;101367.50;;;6.69;51.90
43621;BME280;29213;50.770;7.298;2023-04-10T07:19:29;101348.03;;;6.70;51.71
43621;BME280;29213;50.770;7.298;2023-04-10T07:21:54;101344.31;;;6.95;52.07
43621;BME280;29213;50.770;7.298;2023-04-10T07:24:20;101375.47;;;7.26;50.72
43621;BME280;29213;50.770;7.298;2023-04-10T07:26:45;101372.66;;;7.39;50.58
43621;BME280;29213;50.770;7.298;2023-04-10T07:29:11;101317.53;;;7.10;49.18
43621;BME280;29213;50.770;7.298;2023-04-10T07:31:38;101381.06;;;7.56;48.04
43621;BME280;29213;50.770;7.298;2023-04-10T07:34:03;101350.69;;;7.60;47.72
43621;BME280;29213;50.770;7.298;2023-04-10T07:36:28;101234.25;;;7.03;47.20
43621;BME280;29213;50.770;7.298;2023-04-10T07:38:54;101281.84;;;7.37;46.39
43621;BME280;29213;50.770;7.298;2023-04-10T07:41:20;101335.53;;;7.83;46.60
43621;BME280;29213;50.770;7.298;2023-04-10T07:43:46;101217.94;;;7.19;45.68
43621;BME280;29213;50.770;7.298;2023-04-10T07:46:12;101287.94;;;7.82;47.94
43621;BME280;29213;50.770;7.298;2023-04-10T07:48:38;101331.25;;;8.25;46.54
43621;BME280;29213;50.770;7.298;2023-04-10T07:51:03;101288.69;;;8.05;45.53
43621;BME280;29213;50.770;7.298;2023-04-10T07:53:29;101308.00;;;8.38;45.46
43621;BME280;29213;50.770;7.298;2023-04-10T07:55:55;101237.47;;;8.14;44.49
43621;BME280;29213;50.770;7.298;2023-04-10T07:58:20;101274.56;;;8.57;43.98
43621;BME280;29213;50.770;7.298;2023-04-10T08:00:46;101199.72;;;8.32;43.72
43621;BME280;29213;50.770;7.298;2023-04-10T08:03:11;101205.72;;;8.34;42.79
43621;BME280;29213;50.770;7.298;2023-04-10T08:05:37;101232.94;;;8.67;43.15
43621;BME280;29213;50.770;7.298;2023-04-10T08:08:03;101225.78;;;8.58;42.77
43621;BME280;29213;50.770;7.298;2023-04-10T08:10:28;101301.13;;;8.98;41.21
43621;BME280;29213;50.770;7.298;2023-04-10T08:12:53;101278.44;;;8.84;40.89
43621;BME280;29213;50.770;7.298;2023-04-10T08:15:19;101269.59;;;8.83;41.45
43621;BME280;29213;50.770;7.298;2023-04-10T08:17:44;101239.94;;;8.78;41.70
43621;BME280;29213;50.770;7.298;2023-04-10T08:20:10;101157.28;;;8.42;41.03
43621;BME280;29213;50.770;7.298;2023-04-10T08:22:36;101200.41;;;8.85;40.55
43621;BME280;29213;50.770;7.298;2023-04-10T08:25:02;101247.44;;;9.14;40.05
43621;BME280;29213;50.770;7.298;2023-04-10T08:27:27;101217.22;;;9.15;39.84
43621;BME280;29213;50.770;7.298;2023-04-10T08:29:54;101240.78;;;9.49;40.77
43621;BME280;29213;50.770;7.298;2023-04-10T08:32:20;101238.78;;;9.61;39.74
43621;BME280;29213;50.770;7.298;2023-04-10T08:34:45;101220.19;;;9.52;39.50
43621;BME280;29213;50.770;7.298;2023-04-10T08:37:10;101253.72;;;9.92;38.95
43621;BME280;29213;50.770;7.298;2023-04-10T08:39:37;101267.25;;;10.19;39.25
43621;BME280;29213;50.770;7.298;2023-04-10T08:42:02;101195.63;;;9.87;38.93
43621;BME280;29213;50.770;7.298;2023-04-10T08:44:28;101262.97;;;10.46;37.81
43621;BME280;29213;50.770;7.298;2023-04-10T08:46:57;101230.38;;;10.34;37.18
43621;BME280;29213;50.770;7.298;2023-04-10T08:49:36;101225.53;;;10.47;36.65
43621;BME280;29213;50.770;7.298;2023-04-10T08:52:07;101140.00;;;10.04;36.51
43621;BME280;29213;50.770;7.298;2023-04-10T08:54:36;101216.28;;;10.51;36.50
43621;BME280;29213;50.770;7.298;2023-04-10T08:57:02;101175.81;;;10.38;36.95
43621;BME280;29213;50.770;7.298;2023-04-10T08:59:30;101141.53;;;10.35;37.08
43621;BME280;29213;50.770;7.298;2023-04-10T09:01:57;101248.75;;;11.11;37.00
43621;BME280;29213;50.770;7.298;2023-04-10T09:04:24;101136.75;;;10.56;36.17
43621;BME280;29213;50.770;7.298;2023-04-10T09:06:51;101131.50;;;10.65;35.80
43621;BME280;29213;50.770;7.298;2023-04-10T09:09:17;101151.78;;;10.94;35.75
43621;BME280;29213;50.770;7.298;2023-04-10T09:14:25;101181.34;;;11.19;35.62
43621;BME280;29213;50.770;7.298;2023-04-10T09:16:52;101106.72;;;10.64;34.84
43621;BME280;29213;50.770;7.298;2023-04-10T09:19:32;101212.16;;;11.40;36.60
43621;BME280;29213;50.770;7.298;2023-04-10T09:21:58;101142.03;;;11.21;36.99
43621;BME280;29213;50.770;7.298;2023-04-10T09:24:23;101199.28;;;11.53;35.20
43621;BME280;29213;50.770;7.298;2023-04-10T09:26:49;101088.31;;;10.89;36.21
43621;BME280;29213;50.770;7.298;2023-04-10T09:29:15;101124.53;;;11.00;34.96
43621;BME280;29213;50.770;7.298;2023-04-10T09:31:43;101104.06;;;11.01;35.48
43621;BME280;29213;50.770;7.298;2023-04-10T09:34:12;101176.44;;;11.50;34.84
43621;BME280;29213;50.770;7.298;2023-04-10T09:36:41;101158.66;;;11.59;35.92
43621;BME280;29213;50.770;7.298;2023-04-10T09:39:08;101167.94;;;11.82;36.11
43621;BME280;29213;50.770;7.298;2023-04-10T09:41:34;101154.41;;;12.01;36.15
43621;BME280;29213;50.770;7.298;2023-04-10T09:44:07;101082.13;;;11.60;34.20
43621;BME280;29213;50.770;7.298;2023-04-10T09:46:33;101057.63;;;11.65;35.77
43621;BME280;29213;50.770;7.298;2023-04-10T09:48:59;101134.84;;;12.36;35.22
43621;BME280;29213;50.770;7.298;2023-04-10T09:51:32;101154.25;;;12.54;34.41
43621;BME280;29213;50.770;7.298;2023-04-10T09:54:02;101149.72;;;12.38;34.14
43621;BME280;29213;50.770;7.298;2023-04-10T09:56:28;101071.09;;;11.55;34.04
43621;BME280;29213;50.770;7.298;2023-04-10T09:58:56;101104.91;;;11.81;34.26
43621;BME280;29213;50.770;7.298;2023-04-10T10:01:25;100998.81;;;11.40;34.91
43621;BME280;29213;50.770;7.298;2023-04-10T10:03:53;101143.38;;;12.31;32.71
43621;BME280;29213;50.770;7.298;2023-04-10T10:06:20;101126.50;;;12.30;32.84
43621;BME280;29213;50.770;7.298;2023-04-10T10:08:46;101117.66;;;12.30;34.09
43621;BME280;29213;50.770;7.298;2023-04-10T10:11:13;101123.59;;;12.75;34.49
43621;BME280;29213;50.770;7.298;2023-04-10T10:13:49;101121.91;;;12.99;34.54
43621;BME280;29213;50.770;7.298;2023-04-10T10:16:36;101104.06;;;12.91;34.02
43621;BME280;29213;50.770;7.298;2023-04-10T10:19:22;101118.97;;;13.11;32.74
43621;BME280;29213;50.770;7.298;2023-04-10T10:21:51;101091.69;;;12.82;32.36
43621;BME280;29213;50.770;7.298;2023-04-10T10:24:18;101126.63;;;13.14;31.58
43621;BME280;29213;50.770;7.298;2023-04-10T10:26:46;101106.72;;;13.00;30.88
43621;BME280;29213;50.770;7.298;2023-04-10T10:29:14;101102.69;;;12.95;30.67
43621;BME280;29213;50.770;7.298;2023-04-10T10:31:41;101027.19;;;12.68;32.37
43621;BME280;29213;50.770;7.298;2023-04-10T10:34:07;101120.44;;;13.30;31.13
43621;BME280;29213;50.770;7.298;2023-04-10T10:36:38;101107.22;;;13.36;30.89
43621;BME280;29213;50.770;7.298;2023-04-10T10:39:25;101099.69;;;13.48;30.47
43621;BME280;29213;50.770;7.298;2023-04-10T10:42:10;101002.97;;;12.95;29.43
43621;BME280;29213;50.770;7.298;2023-04-10T10:47:31;100954.56;;;12.40;29.41
43621;BME280;29213;50.770;7.298;2023-04-10T10:49:59;101080.59;;;13.52;30.81
43621;BME280;29213;50.770;7.298;2023-04-10T10:52:45;101071.63;;;13.84;31.42
43621;BME280;29213;50.770;7.298;2023-04-10T11:00:22;100969.81;;;13.69;29.08
43621;BME280;29213;50.770;7.298;2023-04-10T11:08:17;101004.03;;;14.14;29.47
43621;BME280;29213;50.770;7.298;2023-04-10T11:11:08;101016.25;;;14.63;29.34
43621;BME280;29213;50.770;7.298;2023-04-10T11:13:39;100911.06;;;13.99;27.86
43621;BME280;29213;50.770;7.298;2023-04-10T11:16:06;100977.16;;;14.30;27.84
43621;BME280;29213;50.770;7.298;2023-04-10T11:21:13;100979.84;;;14.69;28.50
43621;BME280;29213;50.770;7.298;2023-04-10T11:24:05;100973.97;;;14.89;29.21
43621;BME280;29213;50.770;7.298;2023-04-10T11:31:43;100955.53;;;14.70;27.44
43621;BME280;29213;50.770;7.298;2023-04-10T11:34:09;100960.28;;;14.45;27.08
43621;BME280;29213;50.770;7.298;2023-04-10T11:36:42;100874.78;;;13.97;28.79
43621;BME280;29213;50.770;7.298;2023-04-10T11:39:10;100953.47;;;14.58;27.92
43621;BME280;29213;50.770;7.298;2023-04-10T11:44:13;100932.53;;;14.76;28.97
43621;BME280;29213;50.770;7.298;2023-04-10T11:46:43;100921.44;;;14.94;27.43
43621;BME280;29213;50.770;7.298;2023-04-10T11:49:16;100914.88;;;14.82;26.26
43621;BME280;29213;50.770;7.298;2023-04-10T11:51:45;100883.63;;;14.74;26.58
43621;BME280;29213;50.770;7.298;2023-04-10T11:54:19;100927.81;;;14.93;27.44
43621;BME280;29213;50.770;7.298;2023-04-10T11:59:18;100909.22;;;14.77;27.10
43621;BME280;29213;50.770;7.298;2023-04-10T12:01:44;100863.66;;;14.47;28.78
43621;BME280;29213;50.770;7.298;2023-04-10T12:04:16;100875.03;;;14.79;27.74
43621;BME280;29213;50.770;7.298;2023-04-10T12:06:46;100819.19;;;14.22;27.22
43621;BME280;29213;50.770;7.298;2023-04-10T12:09:13;100775.31;;;13.85;27.84
43621;BME280;29213;50.770;7.298;2023-04-10T12:11:48;100895.38;;;14.73;29.47
43621;BME280;29213;50.770;7.298;2023-04-10T12:14:14;100752.69;;;13.87;29.53
43621;BME280;29213;50.770;7.298;2023-04-10T12:16:40;100896.22;;;14.89;28.71
43621;BME280;29213;50.770;7.298;2023-04-10T12:19:06;100858.00;;;14.56;28.65
43621;BME280;29213;50.770;7.298;2023-04-10T12:21:34;100711.94;;;13.62;28.88
43621;BME280;29213;50.770;7.298;2023-04-10T12:24:00;100812.78;;;14.08;28.21
43621;BME280;29213;50.770;7.298;2023-04-10T12:26:25;100901.81;;;14.64;28.15
43621;BME280;29213;50.770;7.298;2023-04-10T12:28:53;100898.88;;;14.89;28.84
43621;BME280;29213;50.770;7.298;2023-04-10T12:31:29;100843.06;;;14.62;28.89
43621;BME280;29213;50.770;7.298;2023-04-10T12:33:55;100824.91;;;14.79;29.15
43621;BME280;29213;50.770;7.298;2023-04-10T12:36:24;100772.88;;;14.59;28.92
43621;BME280;29213;50.770;7.298;2023-04-10T12:38:53;100773.75;;;14.44;28.19
43621;BME280;29213;50.770;7.298;2023-04-10T12:41:21;100718.41;;;14.21;29.02
43621;BME280;29213;50.770;7.298;2023-04-10T12:43:51;100848.00;;;15.26;29.66
43621;BME280;29213;50.770;7.298;2023-04-10T12:46:26;100862.94;;;15.50;29.35
43621;BME280;29213;50.770;7.298;2023-04-10T12:48:52;100687.81;;;14.30;28.87
43621;BME280;29213;50.770;7.298;2023-04-10T12:51:17;100786.09;;;15.05;29.08
43621;BME280;29213;50.770;7.298;2023-04-10T12:53:44;100863.31;;;15.69;29.42
43621;BME280;29213;50.770;7.298;2023-04-10T12:56:10;100817.56;;;15.55;29.19
43621;BME280;29213;50.770;7.298;2023-04-10T12:58:38;100775.38;;;15.49;28.91
43621;BME280;29213;50.770;7.298;2023-04-10T13:01:05;100782.06;;;15.82;28.89
43621;BME280;29213;50.770;7.298;2023-04-10T13:03:37;100801.72;;;16.11;29.41
43621;BME280;29213;50.770;7.298;2023-04-10T13:06:04;100754.22;;;16.11;29.12
43621;BME280;29213;50.770;7.298;2023-04-10T13:08:31;100618.72;;;15.57;27.75
43621;BME280;29213;50.770;7.298;2023-04-10T13:11:00;100831.22;;;17.03;27.35
43621;BME280;29213;50.770;7.298;2023-04-10T13:13:28;100751.53;;;16.95;26.83
43621;BME280;29213;50.770;7.298;2023-04-10T13:16:00;100742.88;;;17.27;26.49
43621;BME280;29213;50.770;7.298;2023-04-10T13:18:25;100693.00;;;17.25;26.53
43621;BME280;29213;50.770;7.298;2023-04-10T13:20:51;100812.72;;;18.37;25.43
43621;BME280;29213;50.770;7.298;2023-04-10T13:23:16;100654.66;;;17.70;26.29
43621;BME280;29213;50.770;7.298;2023-04-10T13:25:42;100769.13;;;18.47;24.60
43621;BME280;29213;50.770;7.298;2023-04-10T13:28:07;100651.97;;;17.90;24.98
43621;BME280;29213;50.770;7.298;2023-04-10T13:30:37;100795.25;;;18.60;24.70
43621;BME280;29213;50.770;7.298;2023-04-10T13:33:03;100726.16;;;17.93;25.41